sensor_id;sensor_type;location;lat;lon;timestamp;pressure;altitude;pressure_sealevel;temperature;humidity
23261;BME280;11799;47.740;-3.390;2022-07-23T00:00:49;102065.00;;;15.24;86.99
23261;BME280;11799;47.740;-3.390;2022-07-23T00:03:15;102069.06;;;15.22;86.95
23261;BME280;11799;47.740;-3.390;2022-07-23T00:05:41;102058.59;;;15.19;87.24
23261;BME280;11799;47.740;-3.390;2022-07-23T00:08:06;102053.59;;;15.16;87.56
23261;BME280;11799;47.740;-3.390;2022-07-23T00:10:33;102059.06;;;15.16;88.00
23261;BME280;11799;47.740;-3.390;2022-07-23T00:12:58;102053.34;;;15.17;88.04
23261;BME280;11799;47.740;-3.390;2022-07-23T00:15:24;102056.56;;;15.14;88.26
23261;BME280;11799;47.740;-3.390;2022-07-23T00:17:50;102062.97;;;15.08;88.01
23261;BME280;11799;47.740;-3.390;2022-07-23T00:20:16;102051.44;;;15.06;88.70
23261;BME280;11799;47.740;-3.390;2022-07-23T00:22:53;102048.09;;;15.04;88.92
23261;BME280;11799;47.740;-3.390;2022-07-23T00:25:20;102054.19;;;15.06;89.10
23261;BME280;11799;47.740;-3.390;2022-07-23T00:27:46;102048.00;;;14.99;89.13
23261;BME280;11799;47.740;-3.390;2022-07-23T00:30:13;102043.72;;;15.03;89.37
23261;BME280;11799;47.740;-3.390;2022-07-23T00:32:50;102044.31;;;15.05;89.37
23261;BME280;11799;47.740;-3.390;2022-07-23T00:35:19;102039.91;;;15.04;89.37
23261;BME280;11799;47.740;-3.390;2022-07-23T00:37:45;102040.25;;;14.96;89.87
23261;BME280;11799;47.740;-3.390;2022-07-23T00:40:11;102045.97;;;14.94;89.84
23261;BME280;11799;47.740;-3.390;2022-07-23T00:42:37;102036.09;;;14.93;89.92
23261;BME280;11799;47.740;-3.390;2022-07-23T00:45:04;102032.75;;;15.03;90.03
23261;BME280;11799;47.740;-3.390;2022-07-23T00:47:30;102043.34;;;15.00;90.14
23261;BME280;11799;47.740;-3.390;2022-07-23T00:49:56;102049.41;;;15.02;90.09
23261;BME280;11799;47.740;-3.390;2022-07-23T00:52:21;102044.66;;;14.97;90.54
23261;BME280;11799;47.740;-3.390;2022-07-23T00:54:47;102041.44;;;15.00;90.36
23261;BME280;11799;47.740;-3.390;2022-07-23T00:57:13;102040.72;;;14.93;90.73
23261;BME280;11799;47.740;-3.390;2022-07-23T00:59:39;102035.84;;;14.95;91.03
23261;BME280;11799;47.740;-3.390;2022-07-23T01:02:05;102031.06;;;14.90;91.07
23261;BME280;11799;47.740;-3.390;2022-07-23T01:04:31;102035.84;;;14.95;91.30
23261;BME280;11799;47.740;-3.390;2022-07-23T01:06:57;102030.38;;;14.95;91.10
23261;BME280;11799;47.740;-3.390;2022-07-23T01:09:22;102028.13;;;14.92;91.31
23261;BME280;11799;47.740;-3.390;2022-07-23T01:11:49;102030.00;;;14.91;91.34
23261;BME280;11799;47.740;-3.390;2022-07-23T01:14:17;102031.44;;;14.94;91.59
23261;BME280;11799;47.740;-3.390;2022-07-23T01:16:45;102034.63;;;14.91;91.60
23261;BME280;11799;47.740;-3.390;2022-07-23T01:19:12;102025.97;;;14.94;91.49
23261;BME280;11799;47.740;-3.390;2022-07-23T01:21:44;102032.97;;;14.90;91.43
23261;BME280;11799;47.740;-3.390;2022-07-23T01:24:10;102034.97;;;14.83;91.50
23261;BME280;11799;47.740;-3.390;2022-07-23T01:26:43;102036.41;;;14.74;92.31
23261;BME280;11799;47.740;-3.390;2022-07-23T01:29:10;102028.78;;;14.76;92.27
23261;BME280;11799;47.740;-3.390;2022-07-23T01:31:36;102027.69;;;14.65;92.73
23261;BME280;11799;47.740;-3.390;2022-07-23T01:34:01;102017.72;;;14.71;92.36
23261;BME280;11799;47.740;-3.390;2022-07-23T01:36:27;102016.06;;;14.70;92.53
23261;BME280;11799;47.740;-3.390;2022-07-23T01:38:54;102007.50;;;14.66;92.79
23261;BME280;11799;47.740;-3.390;2022-07-23T01:41:20;102013.91;;;14.60;93.00
23261;BME280;11799;47.740;-3.390;2022-07-23T01:43:46;102012.97;;;14.66;93.08
23261;BME280;11799;47.740;-3.390;2022-07-23T01:46:11;102016.63;;;14.60;93.18
23261;BME280;11799;47.740;-3.390;2022-07-23T01:48:42;102019.72;;;14.63;93.46
23261;BME280;11799;47.740;-3.390;2022-07-23T01:51:19;102024.59;;;14.61;93.55
23261;BME280;11799;47.740;-3.390;2022-07-23T01:53:53;102017.06;;;14.57;93.80
23261;BME280;11799;47.740;-3.390;2022-07-23T01:56:19;102012.59;;;14.62;93.57
23261;BME280;11799;47.740;-3.390;2022-07-23T01:58:47;102021.09;;;14.54;94.05
23261;BME280;11799;47.740;-3.390;2022-07-23T02:01:13;102021.28;;;14.41;94.99
23261;BME280;11799;47.740;-3.390;2022-07-23T02:03:39;102017.88;;;14.46;94.80
23261;BME280;11799;47.740;-3.390;2022-07-23T02:06:06;102018.72;;;14.46;94.83
23261;BME280;11799;47.740;-3.390;2022-07-23T02:08:32;102031.38;;;14.41;95.17
23261;BME280;11799;47.740;-3.390;2022-07-23T02:11:00;102033.06;;;14.42;95.40
23261;BME280;11799;47.740;-3.390;2022-07-23T02:13:26;102027.16;;;14.45;95.38
23261;BME280;11799;47.740;-3.390;2022-07-23T02:15:53;102027.00;;;14.40;95.73
23261;BME280;11799;47.740;-3.390;2022-07-23T02:18:18;102025.69;;;14.42;95.70
23261;BME280;11799;47.740;-3.390;2022-07-23T02:20:44;102023.34;;;14.46;95.76
23261;BME280;11799;47.740;-3.390;2022-07-23T02:23:10;102026.09;;;14.46;95.28
23261;BME280;11799;47.740;-3.390;2022-07-23T02:25:35;102017.13;;;14.39;95.74
23261;BME280;11799;47.740;-3.390;2022-07-23T02:28:01;102005.59;;;14.36;95.63
23261;BME280;11799;47.740;-3.390;2022-07-23T02:30:27;102010.56;;;14.28;96.64
23261;BME280;11799;47.740;-3.390;2022-07-23T02:32:53;102006.38;;;14.25;96.68
23261;BME280;11799;47.740;-3.390;2022-07-23T02:35:19;101998.84;;;14.21;96.94
23261;BME280;11799;47.740;-3.390;2022-07-23T02:37:45;102002.66;;;14.20;96.85
23261;BME280;11799;47.740;-3.390;2022-07-23T02:40:11;102011.91;;;14.19;97.35
23261;BME280;11799;47.740;-3.390;2022-07-23T02:42:38;102016.56;;;14.18;97.06
23261;BME280;11799;47.740;-3.390;2022-07-23T02:45:05;102001.19;;;14.05;97.64
23261;BME280;11799;47.740;-3.390;2022-07-23T02:47:30;102009.97;;;14.08;97.70
23261;BME280;11799;47.740;-3.390;2022-07-23T02:49:58;102004.38;;;14.02;97.79
23261;BME280;11799;47.740;-3.390;2022-07-23T02:52:24;102001.28;;;13.99;97.73
23261;BME280;11799;47.740;-3.390;2022-07-23T02:54:50;102006.47;;;13.89;98.64
23261;BME280;11799;47.740;-3.390;2022-07-23T02:57:16;102018.22;;;13.89;98.91
23261;BME280;11799;47.740;-3.390;2022-07-23T02:59:41;102011.47;;;13.92;98.79
23261;BME280;11799;47.740;-3.390;2022-07-23T03:02:07;102017.16;;;13.90;98.31
23261;BME280;11799;47.740;-3.390;2022-07-23T03:04:32;102014.84;;;13.87;98.79
23261;BME280;11799;47.740;-3.390;2022-07-23T03:06:58;102003.72;;;13.89;99.27
23261;BME280;11799;47.740;-3.390;2022-07-23T03:09:24;102008.66;;;13.80;99.09
23261;BME280;11799;47.740;-3.390;2022-07-23T03:11:51;102011.97;;;13.82;99.56
23261;BME280;11799;47.740;-3.390;2022-07-23T03:14:18;102024.13;;;13.86;99.43
23261;BME280;11799;47.740;-3.390;2022-07-23T03:16:44;102006.47;;;13.70;100.00
23261;BME280;11799;47.740;-3.390;2022-07-23T03:19:09;102021.19;;;13.69;99.98
23261;BME280;11799;47.740;-3.390;2022-07-23T03:21:35;102019.50;;;13.68;100.00
23261;BME280;11799;47.740;-3.390;2022-07-23T03:24:07;102014.34;;;13.60;100.00
23261;BME280;11799;47.740;-3.390;2022-07-23T03:26:33;102021.47;;;13.43;100.00
23261;BME280;11799;47.740;-3.390;2022-07-23T03:28:58;102020.84;;;13.41;100.00
23261;BME280;11799;47.740;-3.390;2022-07-23T03:31:24;102029.28;;;13.39;100.00
23261;BME280;11799;47.740;-3.390;2022-07-23T03:33:51;102015.03;;;13.56;100.00
23261;BME280;11799;47.740;-3.390;2022-07-23T03:36:17;102026.16;;;13.36;100.00
23261;BME280;11799;47.740;-3.390;2022-07-23T03:38:44;102014.94;;;13.44;100.00
23261;BME280;11799;47.740;-3.390;2022-07-23T03:41:10;102014.03;;;13.50;100.00
23261;BME280;11799;47.740;-3.390;2022-07-23T03:43:35;102028.13;;;13.47;100.00
23261;BME280;11799;47.740;-3.390;2022-07-23T03:46:01;102018.13;;;13.41;100.00
23261;BME280;11799;47.740;-3.390;2022-07-23T03:48:26;102022.97;;;13.39;100.00
23261;BME280;11799;47.740;-3.390;2022-07-23T03:50:52;102033.66;;;13.40;100.00
23261;BME280;11799;47.740;-3.390;2022-07-23T03:53:18;102030.50;;;13.43;100.00
23261;BME280;11799;47.740;-3.390;2022-07-23T03:55:45;102027.38;;;13.40;100.00
23261;BME280;11799;47.740;-3.390;2022-07-23T03:58:11;102029.28;;;13.39;100.00
23261;BME280;11799;47.740;-3.390;2022-07-23T04:00:36;102022.75;;;13.40;100.00
23261;BME280;11799;47.740;-3.390;2022-07-23T04:03:02;102027.16;;;13.41;100.00
23261;BME280;11799;47.740;-3.390;2022-07-23T04:05:28;102033.66;;;13.40;100.00
23261;BME280;11799;47.740;-3.390;2022-07-23T04:08:03;102033.06;;;13.38;100.00
23261;BME280;11799;47.740;-3.390;2022-07-23T04:10:28;102030.19;;;13.33;100.00
23261;BME280;11799;47.740;-3.390;2022-07-23T04:12:54;102026.47;;;13.28;100.00
23261;BME280;11799;47.740;-3.390;2022-07-23T04:15:20;102028.50;;;13.32;100.00
23261;BME280;11799;47.740;-3.390;2022-07-23T04:17:45;102034.41;;;13.29;100.00
23261;BME280;11799;47.740;-3.390;2022-07-23T04:20:12;102042.00;;;13.27;100.00
23261;BME280;11799;47.740;-3.390;2022-07-23T04:22:45;102036.31;;;13.29;100.00
23261;BME280;11799;47.740;-3.390;2022-07-23T04:25:11;102041.22;;;13.20;100.00
23261;BME280;11799;47.740;-3.390;2022-07-23T04:27:38;102033.66;;;13.16;100.00
23261;BME280;11799;47.740;-3.390;2022-07-23T04:30:05;102038.66;;;13.25;100.00
23261;BME280;11799;47.740;-3.390;2022-07-23T04:32:30;102036.38;;;13.22;100.00
23261;BME280;11799;47.740;-3.390;2022-07-23T04:34:56;102033.28;;;13.12;100.00
23261;BME280;11799;47.740;-3.390;2022-07-23T04:37:22;102033.94;;;13.07;100.00
23261;BME280;11799;47.740;-3.390;2022-07-23T04:39:47;102038.28;;;13.15;100.00
23261;BME280;11799;47.740;-3.390;2022-07-23T04:42:13;102043.59;;;13.10;100.00
23261;BME280;11799;47.740;-3.390;2022-07-23T04:44:40;102040.78;;;13.17;100.00
23261;BME280;11799;47.740;-3.390;2022-07-23T04:47:06;102042.06;;;13.21;100.00
23261;BME280;11799;47.740;-3.390;2022-07-23T04:49:32;102046.47;;;13.22;100.00
23261;BME280;11799;47.740;-3.390;2022-07-23T04:51:58;102044.38;;;13.17;100.00
23261;BME280;11799;47.740;-3.390;2022-07-23T04:54:23;102047.13;;;13.10;100.00
23261;BME280;11799;47.740;-3.390;2022-07-23T04:56:49;102050.66;;;13.18;100.00
23261;BME280;11799;47.740;-3.390;2022-07-23T04:59:16;102050.88;;;13.16;100.00
23261;BME280;11799;47.740;-3.390;2022-07-23T05:01:42;102049.41;;;13.20;100.00
23261;BME280;11799;47.740;-3.390;2022-07-23T05:04:08;102055.28;;;13.17;100.00
23261;BME280;11799;47.740;-3.390;2022-07-23T05:06:36;102061.41;;;13.19;100.00
23261;BME280;11799;47.740;-3.390;2022-07-23T05:09:02;102060.34;;;13.20;100.00
23261;BME280;11799;47.740;-3.390;2022-07-23T05:11:28;102059.28;;;13.21;100.00
23261;BME280;11799;47.740;-3.390;2022-07-23T05:13:55;102051.69;;;13.23;100.00
23261;BME280;11799;47.740;-3.390;2022-07-23T05:16:21;102066.63;;;13.21;100.00
23261;BME280;11799;47.740;-3.390;2022-07-23T05:18:47;102064.28;;;13.24;100.00
23261;BME280;11799;47.740;-3.390;2022-07-23T05:21:12;102070.97;;;13.28;100.00
23261;BME280;11799;47.740;-3.390;2022-07-23T05:23:38;102061.88;;;13.34;100.00
23261;BME280;11799;47.740;-3.390;2022-07-23T05:26:04;102062.63;;;13.41;100.00
23261;BME280;11799;47.740;-3.390;2022-07-23T05:28:31;102061.72;;;13.48;100.00
23261;BME280;11799;47.740;-3.390;2022-07-23T05:30:56;102059.78;;;13.55;100.00
23261;BME280;11799;47.740;-3.390;2022-07-23T05:33:22;102069.19;;;13.59;100.00
23261;BME280;11799;47.740;-3.390;2022-07-23T05:35:49;102058.44;;;13.64;100.00
23261;BME280;11799;47.740;-3.390;2022-07-23T05:38:25;102069.03;;;13.72;100.00
23261;BME280;11799;47.740;-3.390;2022-07-23T05:40:52;102062.66;;;13.78;100.00
23261;BME280;11799;47.740;-3.390;2022-07-23T05:43:20;102059.19;;;13.89;100.00
23261;BME280;11799;47.740;-3.390;2022-07-23T05:45:46;102058.06;;;13.97;100.00
23261;BME280;11799;47.740;-3.390;2022-07-23T05:48:12;102059.47;;;13.99;100.00
23261;BME280;11799;47.740;-3.390;2022-07-23T05:50:56;102056.66;;;14.06;100.00
23261;BME280;11799;47.740;-3.390;2022-07-23T05:53:29;102055.50;;;14.14;100.00
23261;BME280;11799;47.740;-3.390;2022-07-23T05:56:05;102066.88;;;14.29;100.00
23261;BME280;11799;47.740;-3.390;2022-07-23T05:58:31;102060.41;;;14.42;100.00
23261;BME280;11799;47.740;-3.390;2022-07-23T06:00:57;102066.94;;;14.41;100.00
23261;BME280;11799;47.740;-3.390;2022-07-23T06:03:22;102067.47;;;14.49;100.00
23261;BME280;11799;47.740;-3.390;2022-07-23T06:05:49;102060.53;;;14.65;100.00
23261;BME280;11799;47.740;-3.390;2022-07-23T06:08:15;102061.63;;;14.76;100.00
23261;BME280;11799;47.740;-3.390;2022-07-23T06:10:41;102062.16;;;14.96;100.00
23261;BME280;11799;47.740;-3.390;2022-07-23T06:13:07;102060.38;;;15.02;100.00
23261;BME280;11799;47.740;-3.390;2022-07-23T06:15:32;102062.28;;;15.13;100.00
23261;BME280;11799;47.740;-3.390;2022-07-23T06:17:58;102054.81;;;15.32;100.00
23261;BME280;11799;47.740;-3.390;2022-07-23T06:20:24;102057.19;;;15.40;99.62
23261;BME280;11799;47.740;-3.390;2022-07-23T06:22:49;102060.25;;;15.43;99.87
23261;BME280;11799;47.740;-3.390;2022-07-23T06:25:16;102061.84;;;15.63;99.33
23261;BME280;11799;47.740;-3.390;2022-07-23T06:27:43;102060.50;;;15.77;99.62
23261;BME280;11799;47.740;-3.390;2022-07-23T06:30:11;102057.00;;;15.93;99.10
23261;BME280;11799;47.740;-3.390;2022-07-23T06:32:37;102063.56;;;16.04;98.88
23261;BME280;11799;47.740;-3.390;2022-07-23T06:35:03;102065.81;;;16.07;99.13
23261;BME280;11799;47.740;-3.390;2022-07-23T06:37:28;102066.50;;;16.14;98.70
23261;BME280;11799;47.740;-3.390;2022-07-23T06:39:54;102078.16;;;16.21;98.30
23261;BME280;11799;47.740;-3.390;2022-07-23T06:42:19;102074.56;;;16.32;98.49
23261;BME280;11799;47.740;-3.390;2022-07-23T06:44:49;102065.84;;;16.35;97.89
23261;BME280;11799;47.740;-3.390;2022-07-23T06:47:16;102063.22;;;16.57;96.84
23261;BME280;11799;47.740;-3.390;2022-07-23T06:49:41;102067.78;;;16.80;95.84
23261;BME280;11799;47.740;-3.390;2022-07-23T06:52:07;102073.03;;;17.32;93.50
23261;BME280;11799;47.740;-3.390;2022-07-23T06:54:33;102074.41;;;17.68;90.33
23261;BME280;11799;47.740;-3.390;2022-07-23T06:56:59;102068.50;;;18.42;87.03
23261;BME280;11799;47.740;-3.390;2022-07-23T06:59:26;102062.81;;;18.75;85.24
23261;BME280;11799;47.740;-3.390;2022-07-23T07:01:52;102067.13;;;19.72;79.99
23261;BME280;11799;47.740;-3.390;2022-07-23T07:04:17;102063.63;;;20.54;75.21
23261;BME280;11799;47.740;-3.390;2022-07-23T07:06:43;102058.97;;;21.01;73.58
23261;BME280;11799;47.740;-3.390;2022-07-23T07:09:09;102069.19;;;21.15;72.36
23261;BME280;11799;47.740;-3.390;2022-07-23T07:11:34;102071.09;;;21.66;69.40
23261;BME280;11799;47.740;-3.390;2022-07-23T07:14:00;102070.41;;;22.09;67.88
23261;BME280;11799;47.740;-3.390;2022-07-23T07:16:25;102060.19;;;22.59;64.86
23261;BME280;11799;47.740;-3.390;2022-07-23T07:18:51;102063.59;;;22.90;64.07
23261;BME280;11799;47.740;-3.390;2022-07-23T07:21:16;102065.47;;;23.24;62.93
23261;BME280;11799;47.740;-3.390;2022-07-23T07:23:42;102062.47;;;23.78;60.59
23261;BME280;11799;47.740;-3.390;2022-07-23T07:26:08;102063.00;;;24.04;58.36
23261;BME280;11799;47.740;-3.390;2022-07-23T07:28:34;102063.34;;;23.98;58.96
23261;BME280;11799;47.740;-3.390;2022-07-23T07:31:00;102065.19;;;24.26;58.97
23261;BME280;11799;47.740;-3.390;2022-07-23T07:33:25;102063.50;;;24.49;58.79
23261;BME280;11799;47.740;-3.390;2022-07-23T07:35:51;102059.97;;;24.43;56.39
23261;BME280;11799;47.740;-3.390;2022-07-23T07:38:16;102062.34;;;24.87;55.72
23261;BME280;11799;47.740;-3.390;2022-07-23T07:40:42;102072.72;;;24.82;54.98
23261;BME280;11799;47.740;-3.390;2022-07-23T07:43:07;102062.38;;;24.69;55.45
23261;BME280;11799;47.740;-3.390;2022-07-23T07:45:33;102065.97;;;25.07;55.24
23261;BME280;11799;47.740;-3.390;2022-07-23T07:47:59;102070.72;;;24.31;56.03
23261;BME280;11799;47.740;-3.390;2022-07-23T07:50:24;102067.84;;;24.55;56.01
23261;BME280;11799;47.740;-3.390;2022-07-23T07:52:50;102075.00;;;24.18;55.40
23261;BME280;11799;47.740;-3.390;2022-07-23T07:55:15;102076.22;;;23.88;57.39
23261;BME280;11799;47.740;-3.390;2022-07-23T07:57:41;102070.69;;;24.87;53.87
23261;BME280;11799;47.740;-3.390;2022-07-23T08:00:09;102067.13;;;25.19;54.51
23261;BME280;11799;47.740;-3.390;2022-07-23T08:02:41;102075.34;;;25.11;53.05
23261;BME280;11799;47.740;-3.390;2022-07-23T08:05:07;102075.84;;;25.59;51.81
23261;BME280;11799;47.740;-3.390;2022-07-23T08:07:33;102076.38;;;25.15;52.07
23261;BME280;11799;47.740;-3.390;2022-07-23T08:09:58;102071.59;;;25.80;52.41
23261;BME280;11799;47.740;-3.390;2022-07-23T08:12:24;102065.56;;;24.95;51.35
23261;BME280;11799;47.740;-3.390;2022-07-23T08:14:49;102061.13;;;24.94;53.28
23261;BME280;11799;47.740;-3.390;2022-07-23T08:17:15;102057.41;;;25.63;52.29
23261;BME280;11799;47.740;-3.390;2022-07-23T08:19:40;102057.72;;;25.02;51.75
23261;BME280;11799;47.740;-3.390;2022-07-23T08:22:06;102057.28;;;24.38;54.32
23261;BME280;11799;47.740;-3.390;2022-07-23T08:24:31;102059.03;;;25.37;52.78
23261;BME280;11799;47.740;-3.390;2022-07-23T08:26:57;102060.31;;;24.93;51.00
23261;BME280;11799;47.740;-3.390;2022-07-23T08:29:22;102061.88;;;24.05;54.81
23261;BME280;11799;47.740;-3.390;2022-07-23T08:31:48;102063.22;;;25.21;50.98
23261;BME280;11799;47.740;-3.390;2022-07-23T08:34:14;102076.94;;;24.42;52.99
23261;BME280;11799;47.740;-3.390;2022-07-23T08:36:39;102074.69;;;25.00;51.09
23261;BME280;11799;47.740;-3.390;2022-07-23T08:39:05;102066.22;;;25.24;49.56
23261;BME280;11799;47.740;-3.390;2022-07-23T08:41:30;102076.34;;;25.01;51.49
23261;BME280;11799;47.740;-3.390;2022-07-23T08:43:56;102079.75;;;24.98;49.34
23261;BME280;11799;47.740;-3.390;2022-07-23T08:46:23;102078.94;;;24.93;51.54
23261;BME280;11799;47.740;-3.390;2022-07-23T08:48:49;102073.19;;;24.51;52.31
23261;BME280;11799;47.740;-3.390;2022-07-23T08:51:15;102076.41;;;24.58;51.92
23261;BME280;11799;47.740;-3.390;2022-07-23T08:53:41;102067.88;;;24.74;51.35
23261;BME280;11799;47.740;-3.390;2022-07-23T08:56:07;102077.59;;;25.09;51.59
23261;BME280;11799;47.740;-3.390;2022-07-23T08:58:33;102078.22;;;24.07;55.44
23261;BME280;11799;47.740;-3.390;2022-07-23T09:00:59;102081.16;;;24.39;54.76
23261;BME280;11799;47.740;-3.390;2022-07-23T09:03:28;102077.41;;;24.30;51.77
23261;BME280;11799;47.740;-3.390;2022-07-23T09:05:54;102078.88;;;23.75;53.74
23261;BME280;11799;47.740;-3.390;2022-07-23T09:08:43;102072.38;;;24.70;52.90
23261;BME280;11799;47.740;-3.390;2022-07-23T09:11:12;102066.22;;;24.11;51.93
23261;BME280;11799;47.740;-3.390;2022-07-23T09:16:11;102073.63;;;23.97;52.30
23261;BME280;11799;47.740;-3.390;2022-07-23T09:21:25;102075.44;;;24.49;52.22
23261;BME280;11799;47.740;-3.390;2022-07-23T09:24:01;102071.84;;;24.06;51.55
23261;BME280;11799;47.740;-3.390;2022-07-23T09:26:41;102071.16;;;23.95;50.08
23261;BME280;11799;47.740;-3.390;2022-07-23T09:29:24;102076.13;;;24.41;50.09
23261;BME280;11799;47.740;-3.390;2022-07-23T09:32:02;102073.25;;;24.04;51.95
23261;BME280;11799;47.740;-3.390;2022-07-23T09:34:35;102069.97;;;24.02;52.32
23261;BME280;11799;47.740;-3.390;2022-07-23T09:37:14;102069.38;;;24.23;51.80
23261;BME280;11799;47.740;-3.390;2022-07-23T09:39:41;102068.84;;;24.03;50.38
23261;BME280;11799;47.740;-3.390;2022-07-23T09:44:47;102062.09;;;24.51;51.41
23261;BME280;11799;47.740;-3.390;2022-07-23T09:47:12;102060.88;;;24.39;52.31
23261;BME280;11799;47.740;-3.390;2022-07-23T09:49:38;102068.84;;;24.21;52.98
23261;BME280;11799;47.740;-3.390;2022-07-23T09:52:04;102067.72;;;23.80;54.21
23261;BME280;11799;47.740;-3.390;2022-07-23T09:57:17;102063.34;;;24.59;52.33
23261;BME280;11799;47.740;-3.390;2022-07-23T09:59:44;102062.34;;;23.88;54.34
23261;BME280;11799;47.740;-3.390;2022-07-23T10:02:12;102073.94;;;24.38;52.21
23261;BME280;11799;47.740;-3.390;2022-07-23T10:05:04;102064.25;;;24.54;51.96
23261;BME280;11799;47.740;-3.390;2022-07-23T10:07:50;102059.81;;;23.68;56.29
23261;BME280;11799;47.740;-3.390;2022-07-23T10:10:35;102062.06;;;23.66;55.23
23261;BME280;11799;47.740;-3.390;2022-07-23T10:13:22;102057.22;;;23.48;54.58
23261;BME280;11799;47.740;-3.390;2022-07-23T10:16:07;102063.28;;;23.50;55.02
23261;BME280;11799;47.740;-3.390;2022-07-23T10:18:34;102064.19;;;23.16;51.06
23261;BME280;11799;47.740;-3.390;2022-07-23T10:21:00;102071.03;;;23.53;55.00
23261;BME280;11799;47.740;-3.390;2022-07-23T10:23:47;102075.91;;;23.08;58.07
23261;BME280;11799;47.740;-3.390;2022-07-23T10:26:37;102084.59;;;23.83;56.66
23261;BME280;11799;47.740;-3.390;2022-07-23T10:31:50;102089.25;;;23.01;60.07
23261;BME280;11799;47.740;-3.390;2022-07-23T10:34:40;102082.66;;;23.55;58.82
23261;BME280;11799;47.740;-3.390;2022-07-23T10:37:22;102081.25;;;23.62;60.12
23261;BME280;11799;47.740;-3.390;2022-07-23T10:40:19;102079.41;;;23.48;60.06
23261;BME280;11799;47.740;-3.390;2022-07-23T10:42:46;102077.69;;;23.23;60.63
23261;BME280;11799;47.740;-3.390;2022-07-23T10:48:18;102074.78;;;23.38;60.31
23261;BME280;11799;47.740;-3.390;2022-07-23T10:56:16;102065.44;;;23.58;58.02
23261;BME280;11799;47.740;-3.390;2022-07-23T10:58:46;102074.16;;;23.75;58.14
23261;BME280;11799;47.740;-3.390;2022-07-23T11:01:32;102066.59;;;24.05;57.30
23261;BME280;11799;47.740;-3.390;2022-07-23T11:03:58;102073.97;;;23.90;56.83
23261;BME280;11799;47.740;-3.390;2022-07-23T11:09:39;102071.44;;;23.70;58.44
23261;BME280;11799;47.740;-3.390;2022-07-23T11:15:15;102075.28;;;23.74;59.59
23261;BME280;11799;47.740;-3.390;2022-07-23T11:20:23;102080.69;;;23.84;56.97
23261;BME280;11799;47.740;-3.390;2022-07-23T11:22:55;102067.19;;;23.78;56.91
23261;BME280;11799;47.740;-3.390;2022-07-23T11:27:49;102066.28;;;24.30;56.83
23261;BME280;11799;47.740;-3.390;2022-07-23T11:35:35;102062.38;;;24.07;54.76
23261;BME280;11799;47.740;-3.390;2022-07-23T11:38:11;102062.00;;;24.38;52.90
23261;BME280;11799;47.740;-3.390;2022-07-23T11:40:38;102070.13;;;24.53;52.17
23261;BME280;11799;47.740;-3.390;2022-07-23T11:43:07;102071.47;;;24.37;52.71
23261;BME280;11799;47.740;-3.390;2022-07-23T11:45:38;102059.22;;;24.38;53.79
23261;BME280;11799;47.740;-3.390;2022-07-23T11:48:07;102073.59;;;24.64;51.84
23261;BME280;11799;47.740;-3.390;2022-07-23T11:50:34;102068.69;;;24.55;51.31
23261;BME280;11799;47.740;-3.390;2022-07-23T11:53:00;102073.84;;;24.62;51.91
23261;BME280;11799;47.740;-3.390;2022-07-23T11:55:25;102067.88;;;24.74;52.79
23261;BME280;11799;47.740;-3.390;2022-07-23T11:57:55;102070.59;;;24.93;52.07
23261;BME280;11799;47.740;-3.390;2022-07-23T12:00:28;102073.38;;;24.93;51.98
23261;BME280;11799;47.740;-3.390;2022-07-23T12:03:00;102081.47;;;24.75;52.05
23261;BME280;11799;47.740;-3.390;2022-07-23T12:05:29;102076.59;;;24.67;51.00
23261;BME280;11799;47.740;-3.390;2022-07-23T12:07:55;102069.97;;;25.01;50.97
23261;BME280;11799;47.740;-3.390;2022-07-23T12:10:26;102074.94;;;25.17;49.84
23261;BME280;11799;47.740;-3.390;2022-07-23T12:12:57;102077.00;;;24.93;50.83
23261;BME280;11799;47.740;-3.390;2022-07-23T12:15:26;102072.34;;;24.88;49.77
23261;BME280;11799;47.740;-3.390;2022-07-23T12:17:54;102079.13;;;25.01;48.01
23261;BME280;11799;47.740;-3.390;2022-07-23T12:20:26;102076.38;;;25.15;49.57
23261;BME280;11799;47.740;-3.390;2022-07-23T12:22:56;102075.56;;;25.14;49.63
23261;BME280;11799;47.740;-3.390;2022-07-23T12:25:25;102075.63;;;25.42;49.71
23261;BME280;11799;47.740;-3.390;2022-07-23T12:28:03;102066.25;;;24.86;50.83
23261;BME280;11799;47.740;-3.390;2022-07-23T12:30:38;102071.66;;;25.15;47.82
23261;BME280;11799;47.740;-3.390;2022-07-23T12:33:06;102062.69;;;25.18;48.58
23261;BME280;11799;47.740;-3.390;2022-07-23T12:35:41;102064.09;;;25.35;49.31
23261;BME280;11799;47.740;-3.390;2022-07-23T12:38:09;102067.13;;;25.19;50.59
23261;BME280;11799;47.740;-3.390;2022-07-23T12:40:44;102077.50;;;25.60;51.09
23261;BME280;11799;47.740;-3.390;2022-07-23T12:43:12;102077.59;;;25.55;51.25
23261;BME280;11799;47.740;-3.390;2022-07-23T12:45:53;102070.28;;;25.45;51.44
23261;BME280;11799;47.740;-3.390;2022-07-23T12:50:56;102076.03;;;25.68;50.76
23261;BME280;11799;47.740;-3.390;2022-07-23T12:53:26;102074.75;;;25.28;50.39
23261;BME280;11799;47.740;-3.390;2022-07-23T12:56:07;102074.28;;;25.39;50.45
23261;BME280;11799;47.740;-3.390;2022-07-23T12:59:12;102075.22;;;25.48;49.89
23261;BME280;11799;47.740;-3.390;2022-07-23T13:01:42;102076.09;;;25.90;49.73
23261;BME280;11799;47.740;-3.390;2022-07-23T13:06:46;102062.69;;;25.92;49.21
23261;BME280;11799;47.740;-3.390;2022-07-23T13:09:14;102061.38;;;25.90;49.40
23261;BME280;11799;47.740;-3.390;2022-07-23T13:11:41;102067.03;;;26.12;48.45
23261;BME280;11799;47.740;-3.390;2022-07-23T13:14:06;102056.41;;;26.14;48.97
23261;BME280;11799;47.740;-3.390;2022-07-23T13:16:33;102061.22;;;26.22;49.74
23261;BME280;11799;47.740;-3.390;2022-07-23T13:18:59;102066.41;;;26.15;49.50
23261;BME280;11799;47.740;-3.390;2022-07-23T13:21:27;102059.00;;;25.83;49.84
23261;BME280;11799;47.740;-3.390;2022-07-23T13:23:53;102068.69;;;25.86;50.57
23261;BME280;11799;47.740;-3.390;2022-07-23T13:26:19;102064.97;;;26.04;50.42